createdAt,value
2022-08-25T04:01:20.179Z,100408.34
2022-08-25T04:04:22.978Z,100418.16
2022-08-25T04:07:25.213Z,100426.03
2022-08-25T04:10:27.659Z,100430.56
2022-08-25T04:13:30.130Z,100427.13
2022-08-25T04:16:34.611Z,100422.69
2022-08-25T04:19:37.282Z,100428.78
2022-08-25T04:22:39.648Z,100422.69
2022-08-25T04:25:47.153Z,100426.13
2022-08-25T04:28:49.617Z,100430.47
2022-08-25T04:31:53.435Z,100429.56
2022-08-25T04:34:55.966Z,100428.66
2022-08-25T04:37:58.084Z,100424.22
2022-08-25T04:41:03.005Z,100425.81
2022-08-25T04:44:06.292Z,100420.47
2022-08-25T04:47:09.691Z,100428.41
2022-08-25T04:50:11.761Z,100425.66
2022-08-25T04:53:14.773Z,100421.00
2022-08-25T04:56:19.927Z,100421.81
2022-08-25T04:59:22.367Z,100424.41
2022-08-25T05:02:25.242Z,100423.34
2022-08-25T05:05:27.626Z,100420.41
2022-08-25T05:08:29.742Z,100428.25
2022-08-25T05:11:33.057Z,100419.09
2022-08-25T05:14:36.969Z,100424.31
2022-08-25T05:17:39.465Z,100425.00
2022-08-25T05:20:41.554Z,100409.87
2022-08-25T05:23:44.630Z,100412.44
2022-08-25T05:26:46.753Z,100417.66
2022-08-25T05:29:49.091Z,100419.28
2022-08-25T05:32:51.169Z,100424.41
2022-08-25T05:35:53.571Z,100420.66
2022-08-25T05:38:55.810Z,100421.44
2022-08-25T05:41:58.141Z,100419.47
2022-08-25T05:45:00.445Z,100417.59
2022-08-25T05:48:03.058Z,100414.88
2022-08-25T05:51:07.494Z,100424.38
2022-08-25T05:54:10.764Z,100411.00
2022-08-25T05:57:12.835Z,100422.22
2022-08-25T06:00:17.155Z,100414.13
2022-08-25T06:03:19.553Z,100406.75
2022-08-25T06:06:24.276Z,100410.84
2022-08-25T06:09:26.649Z,100407.06
2022-08-25T06:12:28.789Z,100406.78
2022-08-25T06:15:31.445Z,100408.16
2022-08-25T06:18:33.550Z,100409.69
2022-08-25T06:21:37.326Z,100412.88
2022-08-25T06:24:39.409Z,100408.88
2022-08-25T06:27:42.521Z,100412.69
2022-08-25T06:30:44.828Z,100410.37
2022-08-25T06:33:47.196Z,100410.44
2022-08-25T06:39:52.676Z,100420.75
2022-08-25T06:42:54.896Z,100424.53
2022-08-25T06:45:57.625Z,100430.37
2022-08-25T06:49:00.778Z,100426.13
2022-08-25T06:52:04.114Z,100432.34
2022-08-25T06:55:06.771Z,100426.06
2022-08-25T06:58:10.221Z,100430.16
2022-08-25T07:01:19.813Z,100429.00
2022-08-25T07:04:22.728Z,100439.44
2022-08-25T07:07:24.838Z,100430.41
2022-08-25T07:10:27.308Z,100432.94
2022-08-25T07:13:32.944Z,100432.06
2022-08-25T07:16:37.008Z,100434.56
2022-08-25T07:19:39.212Z,100427.13
2022-08-25T07:22:43.577Z,100429.53
2022-08-25T07:25:46.582Z,100420.94
2022-08-25T07:28:49.470Z,100423.72
2022-08-25T07:31:52.439Z,100417.22
2022-08-25T07:35:14.307Z,100419.38
2022-08-25T07:38:19.743Z,100417.28
2022-08-25T07:41:23.306Z,100426.94
2022-08-25T07:44:28.223Z,100429.44
2022-08-25T07:47:31.483Z,100423.75
2022-08-25T07:50:34.060Z,100425.25
2022-08-25T07:53:36.899Z,100423.13
2022-08-25T07:56:41.360Z,100420.47
2022-08-25T07:59:43.723Z,100413.03
2022-08-25T08:02:46.620Z,100413.47
2022-08-25T08:05:48.990Z,100411.44
2022-08-25T08:08:54.564Z,100422.75
2022-08-25T08:12:00.383Z,100418.69
2022-08-25T08:15:03.491Z,100400.78
2022-08-25T08:18:12.585Z,100410.00
2022-08-25T08:21:19.953Z,100398.09
2022-08-25T08:24:44.013Z,100411.16
2022-08-25T08:27:46.139Z,100407.25
2022-08-25T08:30:52.865Z,100417.00
2022-08-25T08:33:57.853Z,100411.09
2022-08-25T08:37:00.493Z,100411.59
2022-08-25T08:40:03.647Z,100410.59
2022-08-25T08:43:18.033Z,100410.53
2022-08-25T08:46:23.019Z,100409.25
2022-08-25T08:49:55.514Z,100411.91
2022-08-25T08:53:05.191Z,100411.91
2022-08-25T08:56:16.356Z,100401.78
2022-08-25T09:02:53.276Z,100398.44
2022-08-25T09:06:00.594Z,100396.72
2022-08-25T09:09:06.892Z,100391.94
2022-08-25T09:12:41.299Z,100395.44
2022-08-25T10:55:30.530Z,100286.72
2022-08-25T10:58:53.168Z,100278.78
2022-08-25T11:02:17.302Z,100282.22
2022-08-25T11:05:37.020Z,100271.00
2022-08-25T11:08:42.881Z,100267.59
2022-08-25T11:11:53.788Z,100257.91
2022-08-25T11:15:00.077Z,100246.78
2022-08-25T11:18:14.521Z,100256.84
2022-08-25T11:21:27.454Z,100262.59
2022-08-25T11:25:01.123Z,100248.56
2022-08-25T11:28:47.277Z,100240.00
2022-08-25T11:31:53.723Z,100241.06
2022-08-25T11:34:56.137Z,100236.22
2022-08-25T11:38:14.270Z,100233.75
2022-08-25T11:41:30.218Z,100227.16
2022-08-25T11:44:39.957Z,100213.97
2022-08-25T11:48:01.184Z,100208.34
2022-08-25T11:51:09.410Z,100211.81
2022-08-25T11:54:30.505Z,100205.06
2022-08-25T11:57:33.029Z,100208.41
2022-08-25T12:00:39.209Z,100200.59
2022-08-25T12:03:43.329Z,100198.53
2022-08-25T12:07:06.871Z,100190.72
2022-08-25T12:10:15.134Z,100186.78
2022-08-25T12:13:47.423Z,100183.97
2022-08-25T12:16:56.158Z,100194.56
2022-08-25T12:19:59.854Z,100193.63
2022-08-25T12:23:02.371Z,100188.50
2022-08-25T12:26:35.486Z,100192.03
2022-08-25T12:29:48.150Z,100184.62
2022-08-25T12:33:11.414Z,100189.75
2022-08-25T12:36:30.918Z,100180.56
2022-08-25T12:39:42.680Z,100183.50
2022-08-25T12:42:45.987Z,100186.19
2022-08-25T12:45:50.697Z,100173.50
2022-08-25T12:49:00.441Z,100170.06
2022-08-25T12:52:14.190Z,100167.47
2022-08-25T12:55:20.950Z,100161.97
2022-08-25T12:58:38.612Z,100163.75
2022-08-25T13:02:18.037Z,100163.19
2022-08-25T13:05:45.919Z,100165.00
2022-08-25T13:09:08.432Z,100170.25
2022-08-25T13:12:24.192Z,100164.19
2022-08-25T13:15:37.507Z,100162.44
2022-08-25T13:18:39.862Z,100160.69
2022-08-25T13:21:43.837Z,100155.22
2022-08-25T13:24:50.491Z,100157.12
2022-08-25T13:27:57.888Z,100152.37
2022-08-25T13:31:17.633Z,100142.91
2022-08-25T13:34:23.987Z,100142.91
2022-08-25T13:37:36.825Z,100134.91
2022-08-25T13:40:39.519Z,100133.59
2022-08-25T13:43:45.374Z,100129.16
2022-08-25T13:46:48.401Z,100130.44
2022-08-25T13:49:50.478Z,100129.81
2022-08-25T13:53:12.960Z,100136.84
2022-08-25T13:56:24.431Z,100136.00
2022-08-25T13:59:39.209Z,100128.63
2022-08-25T14:02:50.303Z,100133.50
2022-08-25T14:06:05.954Z,100134.34
2022-08-25T14:09:16.007Z,100120.25
2022-08-25T14:12:31.072Z,100121.53
2022-08-25T14:15:34.032Z,100122.41
2022-08-25T14:18:37.393Z,100118.09
2022-08-25T14:21:40.830Z,100123.44
2022-08-25T14:37:00.099Z,100109.97
2022-08-25T14:40:02.989Z,100108.41
2022-08-25T14:43:09.796Z,100101.63
2022-08-25T14:46:21.341Z,100099.00
2022-08-25T14:49:29.745Z,100097.69
2022-08-25T14:52:32.162Z,100095.41
2022-08-25T14:55:34.242Z,100098.66
2022-08-25T14:58:51.030Z,100093.28
2022-08-25T15:01:56.229Z,100095.22
2022-08-25T15:05:05.665Z,100090.56
2022-08-25T15:08:32.450Z,100084.94
2022-08-25T15:11:36.278Z,100083.47
2022-08-25T15:14:40.887Z,100084.19
2022-08-25T15:17:44.983Z,100085.94
2022-08-25T15:20:49.940Z,100089.69
2022-08-25T15:23:56.389Z,100088.88
2022-08-25T15:27:01.151Z,100090.22
2022-08-25T15:30:05.451Z,100092.69
2022-08-25T15:33:08.296Z,100096.44
2022-08-25T15:36:15.308Z,100089.03
2022-08-25T15:39:19.027Z,100087.66
2022-08-25T15:42:21.994Z,100082.69
2022-08-25T15:45:24.118Z,100073.12
2022-08-25T15:48:27.131Z,100079.25
2022-08-25T15:51:29.331Z,100079.28
2022-08-25T15:54:33.156Z,100079.00
2022-08-25T15:57:35.386Z,100060.25
2022-08-25T16:00:41.424Z,100066.50
2022-08-25T16:03:44.531Z,100063.44
2022-08-25T16:06:47.201Z,100059.66
